createdAt,value
2018-07-14T00:00:23.208Z,4.23
2018-07-14T00:02:51.778Z,6.17
2018-07-14T00:05:20.471Z,6.50
2018-07-14T00:07:49.012Z,6.80
2018-07-14T00:10:17.528Z,7.20
2018-07-14T00:12:46.337Z,8.50
2018-07-14T00:15:15.001Z,6.67
2018-07-14T00:17:43.520Z,6.53
2018-07-14T00:20:12.269Z,8.90
2018-07-14T00:22:40.864Z,9.20
2018-07-14T00:25:09.537Z,9.07
2018-07-14T00:27:38.024Z,7.40
2018-07-14T00:30:06.580Z,5.27
2018-07-14T00:32:35.311Z,7.50
2018-07-14T00:35:03.928Z,7.03
2018-07-14T00:37:32.558Z,7.40
2018-07-14T00:40:01.240Z,8.93
2018-07-14T00:42:29.849Z,6.07
2018-07-14T00:44:58.406Z,5.93
2018-07-14T00:47:27.093Z,7.07
2018-07-14T00:49:55.588Z,7.40
2018-07-14T00:52:24.155Z,5.27
2018-07-14T00:54:52.739Z,6.93
2018-07-14T00:57:21.054Z,5.17
2018-07-14T00:59:49.390Z,4.50
2018-07-14T01:02:18.082Z,5.83
2018-07-14T01:04:46.560Z,3.93
2018-07-14T01:07:15.246Z,5.57
2018-07-14T01:09:43.828Z,4.67
2018-07-14T01:12:12.308Z,5.20
2018-07-14T01:14:40.823Z,4.40
2018-07-14T01:17:09.473Z,4.67
2018-07-14T01:19:38.339Z,6.40
2018-07-14T01:22:06.950Z,4.37
2018-07-14T01:24:35.441Z,5.33
2018-07-14T01:27:04.023Z,3.90
2018-07-14T01:29:32.500Z,5.33
2018-07-14T01:32:00.983Z,7.27
2018-07-14T01:34:29.525Z,5.03
2018-07-14T01:36:58.138Z,7.00
2018-07-14T01:39:26.892Z,4.53
2018-07-14T01:41:55.508Z,5.27
2018-07-14T01:44:24.095Z,4.90
2018-07-14T01:46:52.817Z,5.40
2018-07-14T01:49:21.256Z,6.47
2018-07-14T01:51:49.943Z,4.37
2018-07-14T01:54:18.524Z,5.40
2018-07-14T01:56:47.008Z,8.90
2018-07-14T01:59:15.591Z,5.63
2018-07-14T02:01:44.070Z,6.33
2018-07-14T02:04:12.759Z,4.70
2018-07-14T02:06:41.179Z,6.73
2018-07-14T02:09:09.820Z,5.77
2018-07-14T02:11:38.405Z,5.83
2018-07-14T02:14:06.972Z,7.47
2018-07-14T02:16:35.693Z,6.20
2018-07-14T02:19:04.252Z,4.57
2018-07-14T02:21:32.947Z,9.73
2018-07-14T02:24:01.625Z,6.57
2018-07-14T02:26:30.135Z,5.57
2018-07-14T02:28:58.687Z,6.50
2018-07-14T02:31:27.271Z,4.93
2018-07-14T02:33:55.757Z,6.47
2018-07-14T02:36:24.333Z,6.60
2018-07-14T02:38:53.023Z,4.67
2018-07-14T02:41:21.602Z,6.30
2018-07-14T02:43:50.185Z,3.97
2018-07-14T02:46:18.871Z,6.33
2018-07-14T02:48:47.388Z,5.70
2018-07-14T02:51:15.836Z,6.37
2018-07-14T02:53:44.417Z,7.27
2018-07-14T02:56:13.064Z,7.97
2018-07-14T02:58:41.707Z,4.53
2018-07-14T03:01:10.177Z,5.93
2018-07-14T03:03:38.748Z,4.73
2018-07-14T03:06:07.395Z,7.40
2018-07-14T03:08:35.876Z,4.43
2018-07-14T03:11:04.267Z,5.63
2018-07-14T03:13:32.781Z,4.53
2018-07-14T03:16:01.252Z,8.27
2018-07-14T03:18:30.140Z,9.73
2018-07-14T03:20:58.556Z,4.90
2018-07-14T03:23:27.106Z,6.63
2018-07-14T03:25:55.790Z,7.27
2018-07-14T03:28:24.313Z,6.43
2018-07-14T03:30:53.059Z,5.50
2018-07-14T03:33:21.741Z,7.00
2018-07-14T03:35:50.326Z,7.87
2018-07-14T03:38:18.810Z,9.23
2018-07-14T03:40:47.509Z,4.97
2018-07-14T03:43:16.189Z,8.53
2018-07-14T03:45:44.965Z,6.70
2018-07-14T03:48:13.561Z,8.10
2018-07-14T03:50:41.969Z,7.47
2018-07-14T03:53:10.511Z,7.57
2018-07-14T03:55:39.093Z,9.13
2018-07-14T03:58:07.675Z,6.90
2018-07-14T04:00:36.257Z,6.17
2018-07-14T04:03:04.753Z,6.00
2018-07-14T04:05:33.477Z,6.53
2018-07-14T04:08:02.037Z,5.93
2018-07-14T04:10:31.001Z,8.13
2018-07-14T04:12:59.701Z,6.10
2018-07-14T04:15:28.237Z,4.97
2018-07-14T04:18:03.203Z,8.23
2018-07-14T04:20:31.968Z,6.20
2018-07-14T04:23:01.082Z,5.83
2018-07-14T04:25:29.496Z,8.00
2018-07-14T04:27:58.557Z,8.50
2018-07-14T04:30:27.240Z,11.97
2018-07-14T04:32:55.928Z,7.50
2018-07-14T04:35:24.976Z,7.83
2018-07-14T04:37:53.706Z,9.17
2018-07-14T04:40:22.171Z,11.40
2018-07-14T04:42:50.978Z,7.83
2018-07-14T04:45:19.464Z,6.60
2018-07-14T04:47:48.039Z,8.77
2018-07-14T04:50:16.625Z,9.83
2018-07-14T04:52:45.159Z,7.43
2018-07-14T04:55:13.685Z,10.77
2018-07-14T04:57:42.176Z,8.97
2018-07-14T05:00:10.851Z,7.70
2018-07-14T05:02:39.358Z,10.37
2018-07-14T05:05:08.158Z,11.57
2018-07-14T05:07:36.804Z,11.27
2018-07-14T05:10:05.508Z,10.93
2018-07-14T05:12:34.098Z,11.73
2018-07-14T05:15:03.036Z,13.47
2018-07-14T05:17:34.168Z,11.43
2018-07-14T05:20:38.945Z,13.47
2018-07-14T05:23:45.003Z,18.57
2018-07-14T05:26:45.408Z,12.47
2018-07-14T05:29:37.056Z,15.57
2018-07-14T05:32:42.576Z,22.80
2018-07-14T05:38:47.033Z,22.37
2018-07-14T05:41:52.773Z,19.63
2018-07-14T05:53:35.405Z,19.97
2018-07-14T05:56:40.251Z,18.83
2018-07-14T05:59:36.016Z,14.93
2018-07-14T06:02:23.347Z,13.13
2018-07-14T06:05:28.072Z,17.70
2018-07-14T06:08:33.198Z,11.30
2018-07-14T06:11:01.681Z,17.90
2018-07-14T06:13:30.129Z,12.70
2018-07-14T06:15:58.714Z,12.03
2018-07-14T06:18:27.297Z,10.60
2018-07-14T06:20:55.792Z,11.70
2018-07-14T06:23:24.462Z,15.13
2018-07-14T06:25:53.032Z,14.77
2018-07-14T06:28:21.627Z,16.70
2018-07-14T06:30:50.220Z,13.53
2018-07-14T06:33:18.817Z,13.63
2018-07-14T06:35:47.344Z,12.17
2018-07-14T06:38:16.307Z,13.97
2018-07-14T06:40:44.950Z,11.87
2018-07-14T06:43:13.637Z,10.47
2018-07-14T06:45:42.361Z,10.57
2018-07-14T06:48:11.007Z,11.20
2018-07-14T06:50:39.804Z,10.20
2018-07-14T06:53:08.584Z,7.83
2018-07-14T06:55:37.166Z,10.77
2018-07-14T06:58:05.771Z,11.03
2018-07-14T07:00:34.230Z,10.58
2018-07-14T07:03:02.823Z,9.53
2018-07-14T07:05:31.498Z,13.00
2018-07-14T07:08:00.081Z,8.93
2018-07-14T07:10:28.677Z,10.07
2018-07-14T07:12:57.296Z,6.20
2018-07-14T07:15:25.935Z,10.80
2018-07-14T07:17:54.344Z,13.83
2018-07-14T07:20:23.001Z,11.80
2018-07-14T07:22:51.896Z,7.70
2018-07-14T07:25:20.468Z,9.30
2018-07-14T07:27:49.057Z,11.03
2018-07-14T07:30:18.634Z,11.10
2018-07-14T07:32:47.162Z,11.10
2018-07-14T07:35:16.016Z,8.30
2018-07-14T07:37:44.650Z,9.40
2018-07-14T07:40:13.289Z,7.27
2018-07-14T07:42:41.841Z,10.90
2018-07-14T07:45:10.463Z,9.10
2018-07-14T07:47:39.161Z,8.00
2018-07-14T07:50:18.792Z,7.47
2018-07-14T07:52:48.183Z,6.43
2018-07-14T07:55:16.983Z,6.70
2018-07-14T07:57:45.571Z,6.43
2018-07-14T08:00:14.147Z,5.77
2018-07-14T08:02:42.731Z,9.40
2018-07-14T08:05:11.227Z,9.53
2018-07-14T08:07:39.793Z,6.00
2018-07-14T08:10:08.525Z,6.57
2018-07-14T08:12:37.166Z,6.37
2018-07-14T08:15:05.730Z,7.73
2018-07-14T08:17:34.113Z,6.30
2018-07-14T08:20:02.739Z,6.87
2018-07-14T08:22:31.304Z,7.93
2018-07-14T08:24:59.978Z,6.87
2018-07-14T08:27:28.559Z,7.10
2018-07-14T08:29:57.143Z,7.43
2018-07-14T08:32:25.723Z,11.03
2018-07-14T08:34:54.309Z,6.87
2018-07-14T08:37:22.791Z,6.13
2018-07-14T08:39:51.292Z,9.20
2018-07-14T08:42:19.853Z,6.60
2018-07-14T08:44:48.436Z,6.43
2018-07-14T08:47:16.934Z,8.57
2018-07-14T08:49:45.704Z,8.50
2018-07-14T08:52:14.389Z,9.10
2018-07-14T08:54:42.975Z,7.50
2018-07-14T08:57:11.560Z,4.90
2018-07-14T08:59:40.142Z,9.03
2018-07-14T09:02:08.585Z,6.27
2018-07-14T09:04:37.320Z,7.20
2018-07-14T09:07:05.890Z,5.47
2018-07-14T09:09:34.337Z,6.27
2018-07-14T09:12:02.960Z,9.48
2018-07-14T09:14:31.641Z,5.97
2018-07-14T09:17:00.221Z,5.70
2018-07-14T09:19:28.869Z,10.07
2018-07-14T09:21:57.697Z,5.97
2018-07-14T09:24:26.277Z,8.43
2018-07-14T09:26:54.768Z,9.27
2018-07-14T09:29:23.550Z,6.50
2018-07-14T09:31:52.245Z,4.17
2018-07-14T09:34:20.816Z,4.90
2018-07-14T09:36:49.397Z,6.73
2018-07-14T09:39:17.980Z,4.60
2018-07-14T09:41:46.472Z,5.63
2018-07-14T09:44:15.051Z,5.40
2018-07-14T09:46:43.729Z,5.23
2018-07-14T09:49:12.092Z,5.53
2018-07-14T09:51:40.721Z,6.53
2018-07-14T09:54:09.272Z,7.50
2018-07-14T09:56:37.768Z,8.03
2018-07-14T09:59:06.442Z,5.20
2018-07-14T10:01:35.028Z,4.03
2018-07-14T10:04:03.459Z,6.10
2018-07-14T10:06:32.092Z,4.50
2018-07-14T10:09:00.770Z,6.40
2018-07-14T10:11:29.300Z,6.33
2018-07-14T10:13:57.936Z,4.40
2018-07-14T10:16:26.622Z,6.73
2018-07-14T10:18:55.041Z,7.67
2018-07-14T10:21:23.684Z,7.63
2018-07-14T10:23:52.186Z,4.93
2018-07-14T10:26:20.851Z,4.73
2018-07-14T10:28:49.743Z,4.67
2018-07-14T10:31:18.327Z,4.33
2018-07-14T10:33:47.166Z,6.97
2018-07-14T10:36:15.798Z,6.50
2018-07-14T10:38:44.250Z,5.35
2018-07-14T10:41:12.862Z,4.90
2018-07-14T10:43:41.395Z,4.70
2018-07-14T10:46:09.984Z,4.57
2018-07-14T10:48:38.611Z,4.13
2018-07-14T10:51:07.106Z,5.27
2018-07-14T10:53:35.776Z,7.33
2018-07-14T10:56:04.359Z,4.67
2018-07-14T10:58:32.942Z,6.17
2018-07-14T11:01:01.731Z,4.50
2018-07-14T11:03:30.139Z,6.27
2018-07-14T11:05:58.794Z,4.57
2018-07-14T11:08:27.376Z,5.47
2018-07-14T11:10:56.164Z,5.07
2018-07-14T11:13:24.748Z,6.77
2018-07-14T11:15:53.164Z,8.18
2018-07-14T11:18:21.707Z,5.33
2018-07-14T11:20:50.496Z,4.93
2018-07-14T11:23:19.216Z,4.37
2018-07-14T11:25:47.865Z,5.30
2018-07-14T11:28:16.557Z,4.20
2018-07-14T11:30:45.254Z,6.97
2018-07-14T11:33:13.923Z,3.83
2018-07-14T11:35:42.509Z,3.83
2018-07-14T11:38:11.089Z,8.40
2018-07-14T11:40:39.777Z,5.23
2018-07-14T11:43:08.293Z,7.73
2018-07-14T11:45:37.052Z,6.33
2018-07-14T11:48:05.525Z,5.40
2018-07-14T11:50:33.939Z,5.23
2018-07-14T11:53:02.493Z,5.40
2018-07-14T11:55:30.982Z,7.30
2018-07-14T11:57:59.859Z,5.77
2018-07-14T12:00:28.438Z,4.63
2018-07-14T12:02:57.123Z,5.83
2018-07-14T12:05:25.808Z,4.70
2018-07-14T12:07:54.398Z,6.37
2018-07-14T12:10:23.078Z,5.67
2018-07-14T12:12:51.661Z,6.20
2018-07-14T12:15:20.347Z,6.53
2018-07-14T12:17:48.840Z,5.77
2018-07-14T12:20:17.193Z,5.40
2018-07-14T12:22:45.892Z,5.03
2018-07-14T12:25:14.476Z,7.37
2018-07-14T12:27:42.964Z,5.30
2018-07-14T12:30:11.555Z,5.10
2018-07-14T12:32:40.227Z,8.00
2018-07-14T12:35:08.807Z,4.80
2018-07-14T12:37:37.172Z,9.47
2018-07-14T12:40:05.974Z,7.23
2018-07-14T12:42:34.380Z,5.87
2018-07-14T12:45:02.789Z,4.50
2018-07-14T12:47:31.429Z,5.00
2018-07-14T12:49:59.906Z,5.53
2018-07-14T12:52:28.579Z,4.67
2018-07-14T12:54:57.163Z,4.23
2018-07-14T12:57:25.909Z,5.30
2018-07-14T12:59:54.533Z,4.50
2018-07-14T13:02:23.121Z,7.07
2018-07-14T13:04:51.711Z,6.73
2018-07-14T13:07:20.487Z,6.47
2018-07-14T13:09:49.071Z,4.50
2018-07-14T13:12:18.067Z,6.13
2018-07-14T13:14:46.646Z,4.73
2018-07-14T13:17:15.385Z,6.83
2018-07-14T13:19:43.924Z,7.50
2018-07-14T13:22:12.599Z,6.07
2018-07-14T13:24:41.099Z,5.17
2018-07-14T13:27:09.665Z,3.70
2018-07-14T13:29:38.247Z,4.10
2018-07-14T13:32:06.784Z,3.70
2018-07-14T13:34:35.515Z,6.43
2018-07-14T13:37:04.098Z,5.13
2018-07-14T13:39:32.509Z,5.80
2018-07-14T13:42:01.058Z,6.00
2018-07-14T13:44:29.748Z,6.10
2018-07-14T13:46:58.268Z,5.80
2018-07-14T13:49:26.911Z,3.23
2018-07-14T13:51:55.698Z,5.57
2018-07-14T13:54:24.395Z,4.27
2018-07-14T13:56:53.069Z,5.27
2018-07-14T13:59:21.655Z,4.93
2018-07-14T14:01:50.462Z,3.93
2018-07-14T14:04:19.330Z,3.87
2018-07-14T14:06:47.915Z,4.40
2018-07-14T14:09:16.728Z,5.63
2018-07-14T14:11:45.594Z,4.73
2018-07-14T14:14:14.174Z,4.63
2018-07-14T14:16:42.809Z,4.47
2018-07-14T14:19:11.259Z,7.10
2018-07-14T14:21:39.756Z,9.70
2018-07-14T14:24:08.509Z,4.13
2018-07-14T14:26:37.088Z,4.93
2018-07-14T14:29:05.585Z,4.73
2018-07-14T14:31:34.009Z,6.00
2018-07-14T14:34:02.531Z,7.60
2018-07-14T14:36:31.024Z,4.60
2018-07-14T14:39:00.004Z,5.17
2018-07-14T14:41:28.487Z,3.97
2018-07-14T14:43:57.277Z,6.97
2018-07-14T14:46:25.775Z,4.60
2018-07-14T14:48:54.338Z,4.63
2018-07-14T14:51:23.022Z,5.53
2018-07-14T14:53:51.608Z,4.53
2018-07-14T14:56:20.107Z,4.67
2018-07-14T14:58:48.983Z,6.60
2018-07-14T15:01:17.659Z,6.43
2018-07-14T15:03:46.257Z,4.40
2018-07-14T15:06:15.136Z,6.53
2018-07-14T15:08:43.849Z,4.27
2018-07-14T15:11:12.418Z,5.00
2018-07-14T15:13:40.988Z,5.07
2018-07-14T15:16:09.773Z,4.77
2018-07-14T15:18:38.265Z,6.80
2018-07-14T15:21:06.839Z,4.87
2018-07-14T15:23:35.623Z,4.03
2018-07-14T15:26:04.411Z,4.07
2018-07-14T15:28:32.915Z,6.30
2018-07-14T15:31:01.581Z,6.40
2018-07-14T15:33:30.161Z,6.67
2018-07-14T15:35:58.652Z,3.73
2018-07-14T15:38:27.427Z,3.73
2018-07-14T15:40:56.128Z,5.73
2018-07-14T15:43:24.903Z,7.07
2018-07-14T15:45:53.806Z,4.40
2018-07-14T15:48:22.375Z,6.27
2018-07-14T15:50:50.959Z,4.70
2018-07-14T15:53:19.460Z,8.30
2018-07-14T15:55:48.131Z,4.43
2018-07-14T15:58:16.706Z,4.93
2018-07-14T16:00:45.120Z,6.37
2018-07-14T16:03:13.770Z,6.87
2018-07-14T16:05:42.468Z,6.23
2018-07-14T16:08:11.349Z,4.83
2018-07-14T16:10:39.826Z,7.63
2018-07-14T16:13:08.718Z,7.83
2018-07-14T16:15:37.208Z,3.73
2018-07-14T16:18:05.676Z,7.10
2018-07-14T16:20:34.220Z,3.40
2018-07-14T16:23:02.846Z,4.13
2018-07-14T16:25:31.631Z,4.73
2018-07-14T16:28:00.021Z,6.13
2018-07-14T16:30:28.596Z,4.07
2018-07-14T16:32:57.176Z,3.87
2018-07-14T16:35:25.711Z,4.53
2018-07-14T16:37:54.346Z,6.50
2018-07-14T16:40:22.824Z,4.10
2018-07-14T16:42:51.419Z,3.37
2018-07-14T16:45:19.947Z,6.30
2018-07-14T16:47:48.470Z,5.27
2018-07-14T16:50:17.264Z,5.90
2018-07-14T16:52:45.649Z,6.93
2018-07-14T16:55:14.124Z,5.50
2018-07-14T16:57:42.793Z,5.27
2018-07-14T17:00:11.488Z,3.83
2018-07-14T17:02:39.967Z,3.40
2018-07-14T17:05:08.555Z,3.27
2018-07-14T17:07:37.137Z,3.87
2018-07-14T17:10:05.826Z,4.73
2018-07-14T17:12:34.317Z,3.93
2018-07-14T17:15:02.886Z,3.57
2018-07-14T17:17:31.383Z,7.27
2018-07-14T17:19:59.807Z,5.77
2018-07-14T17:22:28.428Z,8.23
2018-07-14T17:24:57.014Z,5.47
2018-07-14T17:27:25.901Z,4.17
2018-07-14T17:29:54.507Z,4.00
2018-07-14T17:32:23.131Z,5.83
2018-07-14T17:34:51.753Z,5.87
2018-07-14T17:37:20.146Z,4.27
2018-07-14T17:39:48.816Z,3.83
2018-07-14T17:42:17.397Z,7.33
2018-07-14T17:44:45.981Z,5.30
2018-07-14T17:47:14.568Z,4.63
2018-07-14T17:49:43.248Z,6.10
2018-07-14T17:52:11.891Z,5.73
2018-07-14T17:54:40.622Z,8.60
2018-07-14T17:57:09.204Z,4.97
2018-07-14T17:59:38.040Z,6.37
2018-07-14T18:02:06.787Z,9.00
2018-07-14T18:04:35.435Z,5.57
2018-07-14T18:07:04.163Z,3.53
2018-07-14T18:09:32.588Z,3.73
2018-07-14T18:12:01.214Z,3.13
2018-07-14T18:14:29.898Z,5.30
2018-07-14T18:16:58.583Z,4.37
2018-07-14T18:19:27.170Z,3.30
2018-07-14T18:21:55.457Z,4.57
2018-07-14T18:24:23.789Z,4.83
2018-07-14T18:26:52.199Z,5.67
2018-07-14T18:29:20.797Z,3.93
2018-07-14T18:31:49.368Z,2.90
2018-07-14T18:34:18.052Z,5.27
2018-07-14T18:36:46.632Z,3.83
2018-07-14T18:39:15.122Z,2.60
2018-07-14T18:41:43.803Z,3.27
2018-07-14T18:44:12.588Z,4.33
2018-07-14T18:46:41.197Z,4.40
2018-07-14T18:49:09.719Z,5.50
2018-07-14T18:51:38.337Z,5.10
2018-07-14T18:54:06.920Z,4.97
2018-07-14T18:56:35.464Z,6.37
2018-07-14T18:59:04.188Z,4.27
2018-07-14T19:01:32.772Z,5.33
2018-07-14T19:04:01.355Z,5.43
2018-07-14T19:06:29.906Z,4.87
2018-07-14T19:08:58.532Z,5.20
2018-07-14T19:11:27.103Z,8.37
2018-07-14T19:13:55.606Z,4.93
2018-07-14T19:16:24.032Z,5.23
2018-07-14T19:18:53.571Z,6.63
2018-07-14T19:21:22.155Z,4.60
2018-07-14T19:23:50.606Z,12.97
2018-07-14T19:26:19.323Z,5.00
2018-07-14T19:28:47.903Z,10.20
2018-07-14T19:31:16.384Z,4.27
2018-07-14T19:33:44.877Z,7.00
2018-07-14T19:36:13.323Z,10.27
2018-07-14T19:38:42.076Z,12.50
2018-07-14T19:41:10.352Z,7.63
2018-07-14T19:43:38.997Z,10.93
2018-07-14T19:46:07.679Z,8.00
2018-07-14T19:48:36.168Z,11.60
2018-07-14T19:51:04.621Z,12.77
2018-07-14T19:53:33.470Z,12.27
2018-07-14T19:56:02.135Z,10.33
2018-07-14T19:58:30.692Z,11.17
2018-07-14T20:00:59.275Z,13.10
2018-07-14T20:03:27.770Z,12.67
2018-07-14T20:05:56.328Z,9.30
2018-07-14T20:08:24.925Z,9.30
2018-07-14T20:10:53.606Z,6.13
2018-07-14T20:13:22.100Z,7.23
2018-07-14T20:15:50.775Z,8.43
2018-07-14T20:18:19.357Z,7.80
2018-07-14T20:20:47.942Z,9.30
2018-07-14T20:23:16.452Z,7.00
2018-07-14T20:25:45.010Z,5.90
2018-07-14T20:28:13.585Z,6.60
2018-07-14T20:30:42.026Z,9.33
2018-07-14T20:33:10.652Z,9.03
2018-07-14T20:35:39.064Z,10.73
2018-07-14T20:38:07.452Z,8.53
2018-07-14T20:40:35.993Z,6.83
2018-07-14T20:43:04.571Z,7.90
2018-07-14T20:45:32.877Z,8.33
2018-07-14T20:48:01.431Z,7.57
2018-07-14T20:50:30.013Z,8.30
2018-07-14T20:52:58.604Z,7.00
2018-07-14T20:55:27.178Z,7.10
2018-07-14T20:57:55.659Z,9.87
2018-07-14T21:00:24.345Z,7.73
2018-07-14T21:02:53.034Z,7.20
2018-07-14T21:05:21.519Z,6.47
2018-07-14T21:07:50.202Z,6.60
2018-07-14T21:10:18.780Z,9.15
2018-07-14T21:12:47.167Z,7.43
2018-07-14T21:15:15.653Z,9.97
2018-07-14T21:17:44.562Z,8.00
2018-07-14T21:20:13.228Z,6.93
2018-07-14T21:22:41.748Z,8.63
2018-07-14T21:25:10.585Z,10.17
2018-07-14T21:27:39.167Z,7.90
2018-07-14T21:30:07.709Z,8.67
2018-07-14T21:32:36.436Z,10.40
2018-07-14T21:35:05.019Z,5.27
2018-07-14T21:37:33.604Z,9.30
2018-07-14T21:40:02.402Z,5.77
2018-07-14T21:42:30.995Z,6.73
2018-07-14T21:44:59.578Z,9.47
2018-07-14T21:47:28.065Z,8.00
2018-07-14T21:49:56.617Z,9.07
2018-07-14T21:52:25.306Z,8.87
2018-07-14T21:54:53.753Z,7.50
2018-07-14T21:57:22.470Z,9.20
2018-07-14T21:59:51.056Z,8.70
2018-07-14T22:02:19.946Z,7.93
2018-07-14T22:04:48.629Z,7.73
2018-07-14T22:07:17.248Z,8.97
2018-07-14T22:09:45.899Z,4.97
2018-07-14T22:12:14.544Z,4.97
2018-07-14T22:14:43.374Z,5.03
2018-07-14T22:17:12.095Z,8.10
2018-07-14T22:19:40.849Z,6.33
2018-07-14T22:22:09.346Z,5.73
2018-07-14T22:24:37.908Z,5.63
2018-07-14T22:27:06.593Z,10.30
2018-07-14T22:29:34.966Z,5.37
2018-07-14T22:32:03.763Z,7.20
2018-07-14T22:34:32.188Z,6.37
2018-07-14T22:37:00.724Z,5.40
2018-07-14T22:39:29.405Z,7.90
2018-07-14T22:41:57.923Z,6.40
2018-07-14T22:44:26.475Z,5.10
2018-07-14T22:46:55.053Z,5.17
2018-07-14T22:49:23.556Z,6.77
2018-07-14T22:51:51.987Z,6.93
2018-07-14T22:54:20.701Z,4.20
2018-07-14T22:56:49.387Z,5.20
2018-07-14T22:59:18.013Z,5.60
2018-07-14T23:01:46.653Z,7.80
2018-07-14T23:04:15.236Z,4.57
2018-07-14T23:06:43.922Z,5.50
2018-07-14T23:09:12.507Z,6.03
2018-07-14T23:11:41.087Z,3.90
2018-07-14T23:14:09.593Z,6.73
2018-07-14T23:16:38.160Z,8.13
2018-07-14T23:19:06.837Z,4.33
2018-07-14T23:21:35.429Z,5.93
2018-07-14T23:24:04.001Z,4.63
2018-07-14T23:26:32.592Z,3.73
2018-07-14T23:29:01.076Z,4.80
2018-07-14T23:31:29.560Z,3.80
2018-07-14T23:33:58.088Z,3.70
2018-07-14T23:36:26.815Z,3.37
2018-07-14T23:38:55.398Z,3.10
2018-07-14T23:41:23.985Z,3.13
2018-07-14T23:43:52.589Z,3.77
2018-07-14T23:46:21.145Z,3.30
2018-07-14T23:48:50.134Z,6.03
2018-07-14T23:51:18.516Z,3.27
2018-07-14T23:53:47.100Z,4.53
2018-07-14T23:56:15.795Z,5.20
2018-07-14T23:58:44.476Z,4.40
